sensor_id;sensor_type;location;lat;lon;timestamp;P1;durP1;ratioP1;P2;durP2;ratioP2
63534;SDS011;55128;50.230;18.944;2024-02-28T00:04:28;70.72;;;44.53;;
63534;SDS011;55128;50.230;18.944;2024-02-28T00:09:29;70.22;;;45.58;;
63534;SDS011;55128;50.230;18.944;2024-02-28T00:14:29;67.75;;;43.35;;
63534;SDS011;55128;50.230;18.944;2024-02-28T00:19:29;69.22;;;44.85;;
63534;SDS011;55128;50.230;18.944;2024-02-28T00:24:30;70.80;;;43.50;;
63534;SDS011;55128;50.230;18.944;2024-02-28T00:29:31;68.88;;;45.08;;
63534;SDS011;55128;50.230;18.944;2024-02-28T00:34:31;66.43;;;43.78;;
63534;SDS011;55128;50.230;18.944;2024-02-28T00:39:31;70.63;;;47.10;;
63534;SDS011;55128;50.230;18.944;2024-02-28T00:44:32;65.75;;;41.72;;
63534;SDS011;55128;50.230;18.944;2024-02-28T00:49:32;71.43;;;46.08;;
63534;SDS011;55128;50.230;18.944;2024-02-28T00:54:33;69.57;;;47.03;;
63534;SDS011;55128;50.230;18.944;2024-02-28T00:59:33;67.10;;;45.67;;
63534;SDS011;55128;50.230;18.944;2024-02-28T01:04:33;67.37;;;43.37;;
63534;SDS011;55128;50.230;18.944;2024-02-28T01:09:34;67.00;;;44.83;;
63534;SDS011;55128;50.230;18.944;2024-02-28T01:14:35;65.82;;;42.67;;
63534;SDS011;55128;50.230;18.944;2024-02-28T01:19:35;71.07;;;45.83;;
63534;SDS011;55128;50.230;18.944;2024-02-28T01:24:35;61.92;;;42.15;;
63534;SDS011;55128;50.230;18.944;2024-02-28T01:29:36;63.83;;;43.65;;
63534;SDS011;55128;50.230;18.944;2024-02-28T01:34:37;67.67;;;43.97;;
63534;SDS011;55128;50.230;18.944;2024-02-28T01:39:37;67.25;;;43.10;;
63534;SDS011;55128;50.230;18.944;2024-02-28T01:44:41;67.57;;;44.40;;
63534;SDS011;55128;50.230;18.944;2024-02-28T01:49:45;60.92;;;41.85;;
63534;SDS011;55128;50.230;18.944;2024-02-28T01:54:46;64.07;;;42.63;;
63534;SDS011;55128;50.230;18.944;2024-02-28T01:59:47;58.33;;;41.20;;
63534;SDS011;55128;50.230;18.944;2024-02-28T02:04:48;60.85;;;40.85;;
63534;SDS011;55128;50.230;18.944;2024-02-28T02:09:48;61.28;;;39.20;;
63534;SDS011;55128;50.230;18.944;2024-02-28T02:14:48;59.58;;;38.85;;
63534;SDS011;55128;50.230;18.944;2024-02-28T02:19:49;63.35;;;39.33;;
63534;SDS011;55128;50.230;18.944;2024-02-28T02:24:49;63.83;;;39.40;;
63534;SDS011;55128;50.230;18.944;2024-02-28T02:29:49;62.20;;;39.40;;
63534;SDS011;55128;50.230;18.944;2024-02-28T02:34:50;56.38;;;38.83;;
63534;SDS011;55128;50.230;18.944;2024-02-28T02:39:51;60.28;;;41.70;;
63534;SDS011;55128;50.230;18.944;2024-02-28T02:44:51;58.03;;;39.75;;
63534;SDS011;55128;50.230;18.944;2024-02-28T02:49:52;60.67;;;41.17;;
63534;SDS011;55128;50.230;18.944;2024-02-28T02:54:52;59.17;;;40.50;;
63534;SDS011;55128;50.230;18.944;2024-02-28T02:59:52;66.75;;;41.30;;
63534;SDS011;55128;50.230;18.944;2024-02-28T03:04:53;55.78;;;39.20;;
63534;SDS011;55128;50.230;18.944;2024-02-28T03:09:53;60.03;;;39.97;;
63534;SDS011;55128;50.230;18.944;2024-02-28T03:14:53;58.03;;;37.80;;
63534;SDS011;55128;50.230;18.944;2024-02-28T03:19:54;59.78;;;39.45;;
63534;SDS011;55128;50.230;18.944;2024-02-28T03:24:54;62.85;;;40.95;;
63534;SDS011;55128;50.230;18.944;2024-02-28T03:29:55;59.20;;;39.75;;
63534;SDS011;55128;50.230;18.944;2024-02-28T03:34:55;58.08;;;38.97;;
63534;SDS011;55128;50.230;18.944;2024-02-28T03:39:56;62.88;;;42.45;;
63534;SDS011;55128;50.230;18.944;2024-02-28T03:44:56;68.87;;;44.67;;
63534;SDS011;55128;50.230;18.944;2024-02-28T03:49:57;67.72;;;42.72;;
63534;SDS011;55128;50.230;18.944;2024-02-28T03:54:57;68.68;;;45.50;;
63534;SDS011;55128;50.230;18.944;2024-02-28T03:59:58;68.95;;;46.70;;
63534;SDS011;55128;50.230;18.944;2024-02-28T04:05:00;93.13;;;59.30;;
63534;SDS011;55128;50.230;18.944;2024-02-28T04:10:01;77.22;;;53.55;;
63534;SDS011;55128;50.230;18.944;2024-02-28T04:15:01;80.38;;;55.78;;
63534;SDS011;55128;50.230;18.944;2024-02-28T04:20:02;78.63;;;54.78;;
63534;SDS011;55128;50.230;18.944;2024-02-28T04:25:05;69.25;;;45.55;;
63534;SDS011;55128;50.230;18.944;2024-02-28T04:30:07;72.53;;;46.50;;
63534;SDS011;55128;50.230;18.944;2024-02-28T04:35:08;66.90;;;42.72;;
63534;SDS011;55128;50.230;18.944;2024-02-28T04:40:08;83.63;;;55.65;;
63534;SDS011;55128;50.230;18.944;2024-02-28T04:45:09;60.17;;;39.75;;
63534;SDS011;55128;50.230;18.944;2024-02-28T04:50:10;60.90;;;40.42;;
63534;SDS011;55128;50.230;18.944;2024-02-28T04:55:11;58.40;;;39.40;;
63534;SDS011;55128;50.230;18.944;2024-02-28T05:00:12;63.33;;;40.47;;
63534;SDS011;55128;50.230;18.944;2024-02-28T05:05:13;70.35;;;45.75;;
63534;SDS011;55128;50.230;18.944;2024-02-28T05:10:13;60.97;;;40.90;;
63534;SDS011;55128;50.230;18.944;2024-02-28T05:15:14;62.97;;;42.40;;
63534;SDS011;55128;50.230;18.944;2024-02-28T05:20:14;64.35;;;42.90;;
63534;SDS011;55128;50.230;18.944;2024-02-28T05:25:15;63.35;;;42.65;;
63534;SDS011;55128;50.230;18.944;2024-02-28T05:30:15;62.17;;;40.47;;
63534;SDS011;55128;50.230;18.944;2024-02-28T05:35:16;67.85;;;45.65;;
63534;SDS011;55128;50.230;18.944;2024-02-28T05:40:16;69.47;;;47.80;;
63534;SDS011;55128;50.230;18.944;2024-02-28T05:45:16;68.18;;;44.42;;
63534;SDS011;55128;50.230;18.944;2024-02-28T05:50:17;70.07;;;46.05;;
63534;SDS011;55128;50.230;18.944;2024-02-28T05:55:17;73.57;;;48.75;;
63534;SDS011;55128;50.230;18.944;2024-02-28T06:00:18;73.30;;;49.58;;
63534;SDS011;55128;50.230;18.944;2024-02-28T06:05:19;63.63;;;42.95;;
63534;SDS011;55128;50.230;18.944;2024-02-28T06:10:19;67.85;;;45.17;;
63534;SDS011;55128;50.230;18.944;2024-02-28T06:15:21;75.57;;;51.63;;
63534;SDS011;55128;50.230;18.944;2024-02-28T06:20:21;66.28;;;47.20;;
63534;SDS011;55128;50.230;18.944;2024-02-28T06:25:22;71.97;;;49.50;;
63534;SDS011;55128;50.230;18.944;2024-02-28T06:30:23;68.63;;;49.13;;
63534;SDS011;55128;50.230;18.944;2024-02-28T06:35:24;73.53;;;50.60;;
63534;SDS011;55128;50.230;18.944;2024-02-28T06:40:24;71.22;;;49.38;;
63534;SDS011;55128;50.230;18.944;2024-02-28T06:45:25;72.10;;;48.80;;
63534;SDS011;55128;50.230;18.944;2024-02-28T06:50:25;75.60;;;50.30;;
63534;SDS011;55128;50.230;18.944;2024-02-28T06:55:25;77.10;;;52.15;;
63534;SDS011;55128;50.230;18.944;2024-02-28T07:00:26;78.00;;;51.25;;
63534;SDS011;55128;50.230;18.944;2024-02-28T07:05:27;85.15;;;55.95;;
63534;SDS011;55128;50.230;18.944;2024-02-28T07:10:28;79.65;;;54.97;;
63534;SDS011;55128;50.230;18.944;2024-02-28T07:15:28;78.85;;;53.83;;
63534;SDS011;55128;50.230;18.944;2024-02-28T07:20:28;86.65;;;57.95;;
63534;SDS011;55128;50.230;18.944;2024-02-28T07:25:29;92.57;;;61.23;;
63534;SDS011;55128;50.230;18.944;2024-02-28T07:30:31;94.82;;;63.28;;
63534;SDS011;55128;50.230;18.944;2024-02-28T07:35:31;104.38;;;65.90;;
63534;SDS011;55128;50.230;18.944;2024-02-28T07:40:32;100.07;;;67.55;;
63534;SDS011;55128;50.230;18.944;2024-02-28T07:45:32;106.60;;;69.80;;
63534;SDS011;55128;50.230;18.944;2024-02-28T07:50:33;106.00;;;66.93;;
63534;SDS011;55128;50.230;18.944;2024-02-28T07:55:33;105.50;;;68.60;;
63534;SDS011;55128;50.230;18.944;2024-02-28T08:00:35;108.75;;;67.45;;
63534;SDS011;55128;50.230;18.944;2024-02-28T08:05:35;107.70;;;68.22;;
63534;SDS011;55128;50.230;18.944;2024-02-28T08:10:39;105.75;;;66.50;;
63534;SDS011;55128;50.230;18.944;2024-02-28T08:15:39;110.30;;;68.90;;
63534;SDS011;55128;50.230;18.944;2024-02-28T08:20:40;103.38;;;63.65;;
63534;SDS011;55128;50.230;18.944;2024-02-28T08:25:40;105.63;;;68.50;;
63534;SDS011;55128;50.230;18.944;2024-02-28T08:30:41;104.90;;;67.27;;
63534;SDS011;55128;50.230;18.944;2024-02-28T08:35:41;112.72;;;67.20;;
63534;SDS011;55128;50.230;18.944;2024-02-28T08:40:43;107.47;;;67.18;;
63534;SDS011;55128;50.230;18.944;2024-02-28T08:45:43;104.82;;;66.40;;
63534;SDS011;55128;50.230;18.944;2024-02-28T08:50:43;106.80;;;66.53;;
63534;SDS011;55128;50.230;18.944;2024-02-28T08:55:44;106.28;;;65.50;;
63534;SDS011;55128;50.230;18.944;2024-02-28T09:00:44;102.55;;;65.90;;
63534;SDS011;55128;50.230;18.944;2024-02-28T09:05:44;99.70;;;60.37;;
63534;SDS011;55128;50.230;18.944;2024-02-28T09:10:45;102.27;;;63.17;;
63534;SDS011;55128;50.230;18.944;2024-02-28T09:15:46;106.50;;;67.28;;
63534;SDS011;55128;50.230;18.944;2024-02-28T09:20:47;99.53;;;63.75;;
63534;SDS011;55128;50.230;18.944;2024-02-28T09:25:47;94.45;;;59.90;;
63534;SDS011;55128;50.230;18.944;2024-02-28T09:30:48;95.32;;;60.13;;
63534;SDS011;55128;50.230;18.944;2024-02-28T09:35:50;87.38;;;56.90;;
63534;SDS011;55128;50.230;18.944;2024-02-28T09:40:50;93.87;;;61.27;;
63534;SDS011;55128;50.230;18.944;2024-02-28T09:45:51;91.93;;;57.95;;
63534;SDS011;55128;50.230;18.944;2024-02-28T09:50:52;89.80;;;58.55;;
63534;SDS011;55128;50.230;18.944;2024-02-28T09:55:54;86.18;;;56.30;;
63534;SDS011;55128;50.230;18.944;2024-02-28T10:00:55;96.60;;;59.35;;
63534;SDS011;55128;50.230;18.944;2024-02-28T10:06:01;91.32;;;57.35;;
63534;SDS011;55128;50.230;18.944;2024-02-28T10:11:01;97.15;;;58.45;;
63534;SDS011;55128;50.230;18.944;2024-02-28T10:16:01;95.13;;;58.45;;
63534;SDS011;55128;50.230;18.944;2024-02-28T10:21:03;98.45;;;58.53;;
63534;SDS011;55128;50.230;18.944;2024-02-28T10:26:04;100.18;;;58.65;;
63534;SDS011;55128;50.230;18.944;2024-02-28T10:31:04;92.47;;;56.17;;
63534;SDS011;55128;50.230;18.944;2024-02-28T10:36:06;99.88;;;59.72;;
63534;SDS011;55128;50.230;18.944;2024-02-28T10:41:06;100.78;;;58.50;;
63534;SDS011;55128;50.230;18.944;2024-02-28T10:46:07;107.63;;;60.25;;
63534;SDS011;55128;50.230;18.944;2024-02-28T10:51:09;110.95;;;63.40;;
63534;SDS011;55128;50.230;18.944;2024-02-28T10:56:17;118.38;;;67.03;;
63534;SDS011;55128;50.230;18.944;2024-02-28T11:01:19;117.40;;;66.15;;
63534;SDS011;55128;50.230;18.944;2024-02-28T11:06:20;121.22;;;66.15;;
63534;SDS011;55128;50.230;18.944;2024-02-28T11:11:22;115.53;;;62.95;;
63534;SDS011;55128;50.230;18.944;2024-02-28T11:16:32;118.47;;;64.65;;
63534;SDS011;55128;50.230;18.944;2024-02-28T11:21:34;109.05;;;61.75;;
63534;SDS011;55128;50.230;18.944;2024-02-28T11:26:35;105.30;;;59.38;;
63534;SDS011;55128;50.230;18.944;2024-02-28T11:31:35;98.47;;;55.30;;
63534;SDS011;55128;50.230;18.944;2024-02-28T11:36:36;101.27;;;56.60;;
63534;SDS011;55128;50.230;18.944;2024-02-28T11:41:37;94.82;;;56.65;;
63534;SDS011;55128;50.230;18.944;2024-02-28T11:46:42;99.85;;;57.25;;
63534;SDS011;55128;50.230;18.944;2024-02-28T11:51:44;104.85;;;60.50;;
63534;SDS011;55128;50.230;18.944;2024-02-28T11:56:45;94.95;;;54.17;;
63534;SDS011;55128;50.230;18.944;2024-02-28T12:01:46;99.03;;;54.70;;
63534;SDS011;55128;50.230;18.944;2024-02-28T12:06:50;92.45;;;53.40;;
63534;SDS011;55128;50.230;18.944;2024-02-28T12:11:50;98.38;;;54.72;;
63534;SDS011;55128;50.230;18.944;2024-02-28T12:16:50;100.90;;;56.72;;
63534;SDS011;55128;50.230;18.944;2024-02-28T12:21:51;106.30;;;57.03;;
63534;SDS011;55128;50.230;18.944;2024-02-28T12:26:51;92.00;;;52.22;;
63534;SDS011;55128;50.230;18.944;2024-02-28T12:31:52;92.32;;;52.30;;
63534;SDS011;55128;50.230;18.944;2024-02-28T12:36:53;94.38;;;53.75;;
63534;SDS011;55128;50.230;18.944;2024-02-28T12:41:54;100.75;;;54.85;;
63534;SDS011;55128;50.230;18.944;2024-02-28T12:46:54;98.05;;;53.05;;
63534;SDS011;55128;50.230;18.944;2024-02-28T12:51:55;89.45;;;52.35;;
63534;SDS011;55128;50.230;18.944;2024-02-28T12:56:55;95.45;;;54.25;;
63534;SDS011;55128;50.230;18.944;2024-02-28T13:01:56;86.07;;;49.25;;
63534;SDS011;55128;50.230;18.944;2024-02-28T13:06:56;94.28;;;53.88;;
63534;SDS011;55128;50.230;18.944;2024-02-28T13:11:56;88.97;;;50.22;;
63534;SDS011;55128;50.230;18.944;2024-02-28T13:16:57;83.80;;;49.73;;
63534;SDS011;55128;50.230;18.944;2024-02-28T13:21:58;89.10;;;50.42;;
63534;SDS011;55128;50.230;18.944;2024-02-28T13:26:59;82.30;;;50.03;;
63534;SDS011;55128;50.230;18.944;2024-02-28T13:31:59;81.60;;;48.77;;
63534;SDS011;55128;50.230;18.944;2024-02-28T13:36:59;79.90;;;47.97;;
63534;SDS011;55128;50.230;18.944;2024-02-28T13:42:00;80.27;;;48.17;;
63534;SDS011;55128;50.230;18.944;2024-02-28T13:47:00;84.63;;;50.30;;
63534;SDS011;55128;50.230;18.944;2024-02-28T13:52:00;84.75;;;50.70;;
63534;SDS011;55128;50.230;18.944;2024-02-28T13:57:01;82.40;;;47.58;;
63534;SDS011;55128;50.230;18.944;2024-02-28T14:02:02;83.82;;;47.95;;
63534;SDS011;55128;50.230;18.944;2024-02-28T14:07:02;93.55;;;52.55;;
63534;SDS011;55128;50.230;18.944;2024-02-28T14:12:03;82.65;;;46.40;;
63534;SDS011;55128;50.230;18.944;2024-02-28T14:17:04;76.88;;;43.03;;
63534;SDS011;55128;50.230;18.944;2024-02-28T14:22:04;71.65;;;40.55;;
63534;SDS011;55128;50.230;18.944;2024-02-28T14:27:05;69.07;;;40.42;;
63534;SDS011;55128;50.230;18.944;2024-02-28T14:32:05;73.10;;;41.30;;
63534;SDS011;55128;50.230;18.944;2024-02-28T14:37:07;84.90;;;47.53;;
63534;SDS011;55128;50.230;18.944;2024-02-28T14:42:07;88.07;;;48.53;;
63534;SDS011;55128;50.230;18.944;2024-02-28T14:47:11;88.75;;;48.10;;
63534;SDS011;55128;50.230;18.944;2024-02-28T14:52:12;85.30;;;49.22;;
63534;SDS011;55128;50.230;18.944;2024-02-28T14:57:13;88.07;;;49.97;;
63534;SDS011;55128;50.230;18.944;2024-02-28T15:02:16;86.28;;;49.28;;
63534;SDS011;55128;50.230;18.944;2024-02-28T15:07:16;88.55;;;50.33;;
63534;SDS011;55128;50.230;18.944;2024-02-28T15:12:17;93.15;;;50.50;;
63534;SDS011;55128;50.230;18.944;2024-02-28T15:17:17;92.50;;;51.70;;
63534;SDS011;55128;50.230;18.944;2024-02-28T15:22:18;87.35;;;48.78;;
63534;SDS011;55128;50.230;18.944;2024-02-28T15:27:18;83.35;;;46.33;;
63534;SDS011;55128;50.230;18.944;2024-02-28T15:32:19;80.55;;;46.50;;
63534;SDS011;55128;50.230;18.944;2024-02-28T15:37:19;78.97;;;45.67;;
63534;SDS011;55128;50.230;18.944;2024-02-28T15:42:19;71.47;;;39.72;;
63534;SDS011;55128;50.230;18.944;2024-02-28T15:47:20;59.45;;;33.28;;
63534;SDS011;55128;50.230;18.944;2024-02-28T15:52:22;53.65;;;30.38;;
63534;SDS011;55128;50.230;18.944;2024-02-28T15:57:22;60.70;;;32.50;;
63534;SDS011;55128;50.230;18.944;2024-02-28T16:02:24;63.97;;;33.17;;
63534;SDS011;55128;50.230;18.944;2024-02-28T16:07:24;60.22;;;32.88;;
63534;SDS011;55128;50.230;18.944;2024-02-28T16:12:25;60.83;;;32.80;;
63534;SDS011;55128;50.230;18.944;2024-02-28T16:17:27;57.70;;;31.88;;
63534;SDS011;55128;50.230;18.944;2024-02-28T16:22:27;57.10;;;31.55;;
63534;SDS011;55128;50.230;18.944;2024-02-28T16:27:28;59.20;;;32.30;;
63534;SDS011;55128;50.230;18.944;2024-02-28T16:32:28;54.72;;;31.25;;
63534;SDS011;55128;50.230;18.944;2024-02-28T16:37:30;59.65;;;31.23;;
63534;SDS011;55128;50.230;18.944;2024-02-28T16:42:30;66.03;;;33.70;;
63534;SDS011;55128;50.230;18.944;2024-02-28T16:47:32;57.90;;;30.48;;
63534;SDS011;55128;50.230;18.944;2024-02-28T16:52:32;63.97;;;33.05;;
63534;SDS011;55128;50.230;18.944;2024-02-28T16:57:33;64.78;;;33.33;;
63534;SDS011;55128;50.230;18.944;2024-02-28T17:02:35;66.13;;;33.28;;
63534;SDS011;55128;50.230;18.944;2024-02-28T17:07:36;66.90;;;33.53;;
63534;SDS011;55128;50.230;18.944;2024-02-28T17:12:36;60.17;;;31.58;;
63534;SDS011;55128;50.230;18.944;2024-02-28T17:17:38;59.05;;;30.75;;
63534;SDS011;55128;50.230;18.944;2024-02-28T17:22:38;65.78;;;32.22;;
63534;SDS011;55128;50.230;18.944;2024-02-28T17:27:39;63.90;;;32.23;;
63534;SDS011;55128;50.230;18.944;2024-02-28T17:32:39;62.08;;;32.10;;
63534;SDS011;55128;50.230;18.944;2024-02-28T17:37:39;60.70;;;31.03;;
63534;SDS011;55128;50.230;18.944;2024-02-28T17:42:40;59.38;;;30.67;;
63534;SDS011;55128;50.230;18.944;2024-02-28T17:47:41;61.15;;;31.23;;
63534;SDS011;55128;50.230;18.944;2024-02-28T17:52:43;57.88;;;29.42;;
63534;SDS011;55128;50.230;18.944;2024-02-28T17:57:44;57.33;;;29.83;;
63534;SDS011;55128;50.230;18.944;2024-02-28T18:02:46;55.28;;;29.55;;
63534;SDS011;55128;50.230;18.944;2024-02-28T18:07:46;55.97;;;29.87;;
63534;SDS011;55128;50.230;18.944;2024-02-28T18:12:46;57.07;;;29.43;;
63534;SDS011;55128;50.230;18.944;2024-02-28T18:17:47;48.90;;;27.73;;
63534;SDS011;55128;50.230;18.944;2024-02-28T18:22:47;50.45;;;28.73;;
63534;SDS011;55128;50.230;18.944;2024-02-28T18:27:47;46.22;;;27.58;;
63534;SDS011;55128;50.230;18.944;2024-02-28T18:32:48;50.92;;;27.27;;
63534;SDS011;55128;50.230;18.944;2024-02-28T18:37:48;46.65;;;26.50;;
63534;SDS011;55128;50.230;18.944;2024-02-28T18:42:49;47.33;;;25.27;;
63534;SDS011;55128;50.230;18.944;2024-02-28T18:47:50;46.83;;;26.95;;
63534;SDS011;55128;50.230;18.944;2024-02-28T18:52:50;50.63;;;28.80;;
63534;SDS011;55128;50.230;18.944;2024-02-28T18:57:53;47.60;;;27.95;;
63534;SDS011;55128;50.230;18.944;2024-02-28T19:02:54;57.47;;;34.38;;
63534;SDS011;55128;50.230;18.944;2024-02-28T19:07:56;61.30;;;33.63;;
63534;SDS011;55128;50.230;18.944;2024-02-28T19:12:56;49.40;;;28.23;;
63534;SDS011;55128;50.230;18.944;2024-02-28T19:17:57;49.37;;;28.57;;
63534;SDS011;55128;50.230;18.944;2024-02-28T19:22:58;37.25;;;22.48;;
63534;SDS011;55128;50.230;18.944;2024-02-28T19:27:58;44.15;;;23.73;;
63534;SDS011;55128;50.230;18.944;2024-02-28T19:32:59;45.42;;;25.80;;
63534;SDS011;55128;50.230;18.944;2024-02-28T19:37:59;49.95;;;27.83;;
63534;SDS011;55128;50.230;18.944;2024-02-28T19:43:00;47.70;;;28.60;;
63534;SDS011;55128;50.230;18.944;2024-02-28T19:48:01;40.58;;;24.13;;
63534;SDS011;55128;50.230;18.944;2024-02-28T19:53:01;33.85;;;22.50;;
63534;SDS011;55128;50.230;18.944;2024-02-28T19:58:03;38.28;;;24.23;;
63534;SDS011;55128;50.230;18.944;2024-02-28T20:03:03;43.40;;;23.77;;
63534;SDS011;55128;50.230;18.944;2024-02-28T20:08:04;40.20;;;24.92;;
63534;SDS011;55128;50.230;18.944;2024-02-28T20:13:05;40.85;;;24.70;;
63534;SDS011;55128;50.230;18.944;2024-02-28T20:18:05;41.83;;;25.40;;
63534;SDS011;55128;50.230;18.944;2024-02-28T20:23:07;39.58;;;24.65;;
63534;SDS011;55128;50.230;18.944;2024-02-28T20:28:07;35.75;;;23.35;;
63534;SDS011;55128;50.230;18.944;2024-02-28T20:33:08;37.30;;;25.13;;
63534;SDS011;55128;50.230;18.944;2024-02-28T20:38:08;43.85;;;27.55;;
63534;SDS011;55128;50.230;18.944;2024-02-28T20:43:10;43.95;;;26.60;;
63534;SDS011;55128;50.230;18.944;2024-02-28T20:48:10;41.10;;;26.77;;
63534;SDS011;55128;50.230;18.944;2024-02-28T20:53:11;40.97;;;25.25;;
63534;SDS011;55128;50.230;18.944;2024-02-28T20:58:12;40.53;;;25.90;;
63534;SDS011;55128;50.230;18.944;2024-02-28T21:03:13;39.97;;;24.38;;
63534;SDS011;55128;50.230;18.944;2024-02-28T21:08:13;38.90;;;23.80;;
63534;SDS011;55128;50.230;18.944;2024-02-28T21:13:13;33.85;;;22.63;;
63534;SDS011;55128;50.230;18.944;2024-02-28T21:18:14;30.92;;;20.75;;
63534;SDS011;55128;50.230;18.944;2024-02-28T21:23:14;30.40;;;19.40;;
63534;SDS011;55128;50.230;18.944;2024-02-28T21:28:15;30.35;;;19.40;;
63534;SDS011;55128;50.230;18.944;2024-02-28T21:33:15;28.75;;;17.67;;
63534;SDS011;55128;50.230;18.944;2024-02-28T21:38:16;24.65;;;16.83;;
63534;SDS011;55128;50.230;18.944;2024-02-28T21:43:16;25.40;;;16.37;;
63534;SDS011;55128;50.230;18.944;2024-02-28T21:48:17;24.25;;;17.35;;
63534;SDS011;55128;50.230;18.944;2024-02-28T21:53:18;22.27;;;15.17;;
63534;SDS011;55128;50.230;18.944;2024-02-28T21:58:18;23.83;;;16.17;;
63534;SDS011;55128;50.230;18.944;2024-02-28T22:03:20;21.48;;;13.80;;
63534;SDS011;55128;50.230;18.944;2024-02-28T22:08:21;20.95;;;14.45;;
63534;SDS011;55128;50.230;18.944;2024-02-28T22:13:21;21.63;;;13.73;;
63534;SDS011;55128;50.230;18.944;2024-02-28T22:18:22;18.30;;;12.85;;
63534;SDS011;55128;50.230;18.944;2024-02-28T22:23:22;20.15;;;14.30;;
63534;SDS011;55128;50.230;18.944;2024-02-28T22:28:22;18.58;;;13.48;;
63534;SDS011;55128;50.230;18.944;2024-02-28T22:33:23;19.40;;;14.10;;
63534;SDS011;55128;50.230;18.944;2024-02-28T22:38:23;18.00;;;13.40;;
63534;SDS011;55128;50.230;18.944;2024-02-28T22:43:24;19.92;;;13.93;;
63534;SDS011;55128;50.230;18.944;2024-02-28T22:48:24;19.48;;;13.63;;
63534;SDS011;55128;50.230;18.944;2024-02-28T22:53:24;18.13;;;14.32;;
63534;SDS011;55128;50.230;18.944;2024-02-28T22:58:25;17.58;;;14.15;;
63534;SDS011;55128;50.230;18.944;2024-02-28T23:03:25;18.48;;;13.73;;
63534;SDS011;55128;50.230;18.944;2024-02-28T23:08:26;18.52;;;13.23;;
63534;SDS011;55128;50.230;18.944;2024-02-28T23:13:27;19.05;;;14.27;;
63534;SDS011;55128;50.230;18.944;2024-02-28T23:18:29;16.20;;;13.75;;
63534;SDS011;55128;50.230;18.944;2024-02-28T23:23:30;17.25;;;13.20;;
63534;SDS011;55128;50.230;18.944;2024-02-28T23:28:30;18.13;;;14.47;;
63534;SDS011;55128;50.230;18.944;2024-02-28T23:33:31;18.40;;;13.88;;
63534;SDS011;55128;50.230;18.944;2024-02-28T23:38:31;19.90;;;13.60;;
63534;SDS011;55128;50.230;18.944;2024-02-28T23:43:32;21.83;;;14.52;;
63534;SDS011;55128;50.230;18.944;2024-02-28T23:48:32;22.08;;;15.18;;
63534;SDS011;55128;50.230;18.944;2024-02-28T23:53:32;22.45;;;14.43;;
63534;SDS011;55128;50.230;18.944;2024-02-28T23:58:33;23.27;;;15.27;;
